Tighnabruaich, United Kingdom
Current Conditions -  °F | °C
As of 6:20 PM on Thursday 18 Dec 2014 (Local Time) from EGPF Reporting Station
Light Rain Light Rain  
Wind Chill: 38°   Ceiling: 2000
Heat Index: 45°   Visibility: 6mi
Dew Point: 43°   Wind: 14mph
Humidity: 93%   Direction: 260°W
Pressure: 29.44"   Gusts: NA
Location:  55.89°N, 5.24°W
Report Text: EGPF 181820Z AUTO 26012KT 9999 -RA FEW012/// BKN020/// //////TCU 07/06 Q0997 RERA REDZ
Loading
Personal Weather Stations






























Interactive Weather Map New forecast layout! Learn more

10-Day Weather Forecast

Advertisements
Track Severe Weather on mobile